sensor_id;sensor_type;location;lat;lon;timestamp;P1;durP1;ratioP1;P2;durP2;ratioP2
1062;SDS011;520;50.932;6.962;2023-04-25T00:00:02;3.40;;;1.60;;
1062;SDS011;520;50.932;6.962;2023-04-25T00:02:47;1.80;;;1.70;;
1062;SDS011;520;50.932;6.962;2023-04-25T00:05:23;2.73;;;1.90;;
1062;SDS011;520;50.932;6.962;2023-04-25T00:07:59;2.63;;;2.43;;
1062;SDS011;520;50.932;6.962;2023-04-25T00:10:44;2.40;;;1.73;;
1062;SDS011;520;50.932;6.962;2023-04-25T00:13:14;3.40;;;2.23;;
1062;SDS011;520;50.932;6.962;2023-04-25T00:15:52;3.63;;;2.07;;
1062;SDS011;520;50.932;6.962;2023-04-25T00:18:22;6.40;;;2.50;;
1062;SDS011;520;50.932;6.962;2023-04-25T00:21:04;2.77;;;1.97;;
1062;SDS011;520;50.932;6.962;2023-04-25T00:23:42;4.50;;;2.37;;
1062;SDS011;520;50.932;6.962;2023-04-25T00:26:12;3.63;;;2.40;;
1062;SDS011;520;50.932;6.962;2023-04-25T00:28:44;4.47;;;2.10;;
1062;SDS011;520;50.932;6.962;2023-04-25T00:31:18;2.33;;;1.70;;
1062;SDS011;520;50.932;6.962;2023-04-25T00:33:57;3.30;;;2.10;;
1062;SDS011;520;50.932;6.962;2023-04-25T00:36:27;4.43;;;1.87;;
1062;SDS011;520;50.932;6.962;2023-04-25T00:39:02;3.10;;;1.93;;
1062;SDS011;520;50.932;6.962;2023-04-25T00:41:41;2.73;;;2.03;;
1062;SDS011;520;50.932;6.962;2023-04-25T00:44:16;3.33;;;1.90;;
1062;SDS011;520;50.932;6.962;2023-04-25T00:46:59;3.23;;;2.30;;
1062;SDS011;520;50.932;6.962;2023-04-25T00:49:28;3.57;;;1.80;;
1062;SDS011;520;50.932;6.962;2023-04-25T00:51:55;5.20;;;1.93;;
1062;SDS011;520;50.932;6.962;2023-04-25T00:54:29;5.23;;;1.70;;
1062;SDS011;520;50.932;6.962;2023-04-25T00:57:18;4.90;;;2.10;;
1062;SDS011;520;50.932;6.962;2023-04-25T01:00:02;2.47;;;2.00;;
1062;SDS011;520;50.932;6.962;2023-04-25T01:02:40;2.37;;;2.10;;
1062;SDS011;520;50.932;6.962;2023-04-25T01:05:25;2.47;;;1.67;;
1062;SDS011;520;50.932;6.962;2023-04-25T01:07:57;4.93;;;3.50;;
1062;SDS011;520;50.932;6.962;2023-04-25T01:10:48;2.83;;;1.83;;
1062;SDS011;520;50.932;6.962;2023-04-25T01:13:24;4.73;;;2.00;;
1062;SDS011;520;50.932;6.962;2023-04-25T01:16:04;4.93;;;1.73;;
1062;SDS011;520;50.932;6.962;2023-04-25T01:18:38;5.63;;;2.87;;
1062;SDS011;520;50.932;6.962;2023-04-25T01:21:29;4.03;;;1.87;;
1062;SDS011;520;50.932;6.962;2023-04-25T01:24:12;2.60;;;2.00;;
1062;SDS011;520;50.932;6.962;2023-04-25T01:26:54;5.10;;;2.13;;
1062;SDS011;520;50.932;6.962;2023-04-25T01:29:32;3.57;;;2.27;;
1062;SDS011;520;50.932;6.962;2023-04-25T01:32:21;3.00;;;2.30;;
1062;SDS011;520;50.932;6.962;2023-04-25T01:35:04;3.77;;;2.07;;
1062;SDS011;520;50.932;6.962;2023-04-25T01:37:42;2.30;;;2.10;;
1062;SDS011;520;50.932;6.962;2023-04-25T01:40:22;3.67;;;2.00;;
1062;SDS011;520;50.932;6.962;2023-04-25T01:42:56;3.00;;;2.30;;
1062;SDS011;520;50.932;6.962;2023-04-25T01:45:38;4.50;;;2.57;;
1062;SDS011;520;50.932;6.962;2023-04-25T01:48:23;2.30;;;2.10;;
1062;SDS011;520;50.932;6.962;2023-04-25T01:51:02;3.07;;;2.10;;
1062;SDS011;520;50.932;6.962;2023-04-25T01:53:38;2.40;;;1.97;;
1062;SDS011;520;50.932;6.962;2023-04-25T01:56:19;5.23;;;2.50;;
1062;SDS011;520;50.932;6.962;2023-04-25T01:58:48;1.70;;;1.60;;
1062;SDS011;520;50.932;6.962;2023-04-25T02:01:15;3.33;;;2.07;;
1062;SDS011;520;50.932;6.962;2023-04-25T02:03:44;2.80;;;2.10;;
1062;SDS011;520;50.932;6.962;2023-04-25T02:06:31;5.33;;;1.80;;
1062;SDS011;520;50.932;6.962;2023-04-25T02:09:27;5.53;;;2.70;;
1062;SDS011;520;50.932;6.962;2023-04-25T02:12:03;2.03;;;1.87;;
1062;SDS011;520;50.932;6.962;2023-04-25T02:14:34;4.20;;;2.50;;
1062;SDS011;520;50.932;6.962;2023-04-25T02:17:09;5.07;;;2.73;;
1062;SDS011;520;50.932;6.962;2023-04-25T02:19:43;2.60;;;1.70;;
1062;SDS011;520;50.932;6.962;2023-04-25T02:22:17;4.93;;;2.13;;
1062;SDS011;520;50.932;6.962;2023-04-25T02:24:53;2.40;;;2.20;;
1062;SDS011;520;50.932;6.962;2023-04-25T02:27:26;4.03;;;2.40;;
1062;SDS011;520;50.932;6.962;2023-04-25T02:30:02;2.20;;;1.80;;
1062;SDS011;520;50.932;6.962;2023-04-25T02:32:41;4.27;;;2.00;;
1062;SDS011;520;50.932;6.962;2023-04-25T02:35:15;2.13;;;1.97;;
1062;SDS011;520;50.932;6.962;2023-04-25T02:37:57;3.33;;;1.40;;
1062;SDS011;520;50.932;6.962;2023-04-25T02:40:45;1.90;;;1.67;;
1062;SDS011;520;50.932;6.962;2023-04-25T02:43:26;3.40;;;1.80;;
1062;SDS011;520;50.932;6.962;2023-04-25T02:45:54;1.63;;;1.53;;
1062;SDS011;520;50.932;6.962;2023-04-25T02:48:32;2.17;;;1.67;;
1062;SDS011;520;50.932;6.962;2023-04-25T02:51:12;2.00;;;1.43;;
1062;SDS011;520;50.932;6.962;2023-04-25T02:54:09;2.70;;;1.77;;
1062;SDS011;520;50.932;6.962;2023-04-25T02:56:44;3.40;;;2.13;;
1062;SDS011;520;50.932;6.962;2023-04-25T02:59:45;3.17;;;1.73;;
1062;SDS011;520;50.932;6.962;2023-04-25T03:02:32;1.60;;;1.40;;
1062;SDS011;520;50.932;6.962;2023-04-25T03:05:03;4.23;;;2.03;;
1062;SDS011;520;50.932;6.962;2023-04-25T03:07:52;2.00;;;1.80;;
1062;SDS011;520;50.932;6.962;2023-04-25T03:10:22;4.50;;;1.43;;
1062;SDS011;520;50.932;6.962;2023-04-25T03:13:08;1.80;;;1.40;;
1062;SDS011;520;50.932;6.962;2023-04-25T03:15:45;3.83;;;1.80;;
1062;SDS011;520;50.932;6.962;2023-04-25T03:18:46;3.30;;;1.73;;
1062;SDS011;520;50.932;6.962;2023-04-25T03:21:25;3.07;;;1.53;;
1062;SDS011;520;50.932;6.962;2023-04-25T03:24:02;5.80;;;1.97;;
1062;SDS011;520;50.932;6.962;2023-04-25T03:26:40;1.77;;;1.50;;
1062;SDS011;520;50.932;6.962;2023-04-25T03:29:22;3.57;;;1.50;;
1062;SDS011;520;50.932;6.962;2023-04-25T03:32:03;4.17;;;1.70;;
1062;SDS011;520;50.932;6.962;2023-04-25T03:34:45;3.80;;;3.53;;
1062;SDS011;520;50.932;6.962;2023-04-25T03:37:14;2.13;;;1.70;;
1062;SDS011;520;50.932;6.962;2023-04-25T03:40:02;5.80;;;2.27;;
1062;SDS011;520;50.932;6.962;2023-04-25T03:42:42;2.00;;;1.80;;
1062;SDS011;520;50.932;6.962;2023-04-25T03:45:24;2.90;;;1.50;;
1062;SDS011;520;50.932;6.962;2023-04-25T03:48:04;2.40;;;1.70;;
1062;SDS011;520;50.932;6.962;2023-04-25T03:50:38;1.83;;;1.73;;
1062;SDS011;520;50.932;6.962;2023-04-25T03:53:37;1.77;;;1.40;;
1062;SDS011;520;50.932;6.962;2023-04-25T03:56:31;2.10;;;1.80;;
1062;SDS011;520;50.932;6.962;2023-04-25T03:59:15;2.80;;;1.70;;
1062;SDS011;520;50.932;6.962;2023-04-25T04:01:53;2.00;;;1.50;;
1062;SDS011;520;50.932;6.962;2023-04-25T04:04:42;2.20;;;1.80;;
1062;SDS011;520;50.932;6.962;2023-04-25T04:07:20;1.93;;;1.70;;
1062;SDS011;520;50.932;6.962;2023-04-25T04:10:10;2.60;;;2.10;;
1062;SDS011;520;50.932;6.962;2023-04-25T04:16:28;2.10;;;1.87;;
1062;SDS011;520;50.932;6.962;2023-04-25T04:19:15;1.80;;;1.40;;
1062;SDS011;520;50.932;6.962;2023-04-25T04:21:49;3.50;;;1.87;;
1062;SDS011;520;50.932;6.962;2023-04-25T04:24:19;2.53;;;1.57;;
1062;SDS011;520;50.932;6.962;2023-04-25T04:27:22;2.13;;;1.80;;
1062;SDS011;520;50.932;6.962;2023-04-25T04:30:03;4.60;;;2.33;;
1062;SDS011;520;50.932;6.962;2023-04-25T04:38:02;2.60;;;2.00;;
1062;SDS011;520;50.932;6.962;2023-04-25T04:40:50;1.77;;;1.67;;
1062;SDS011;520;50.932;6.962;2023-04-25T04:43:27;3.53;;;2.07;;
1062;SDS011;520;50.932;6.962;2023-04-25T04:46:03;2.30;;;2.10;;
1062;SDS011;520;50.932;6.962;2023-04-25T04:49:16;1.90;;;1.73;;
1062;SDS011;520;50.932;6.962;2023-04-25T04:52:14;3.60;;;1.77;;
1062;SDS011;520;50.932;6.962;2023-04-25T04:55:04;4.37;;;2.10;;
1062;SDS011;520;50.932;6.962;2023-04-25T04:57:36;2.87;;;1.47;;
1062;SDS011;520;50.932;6.962;2023-04-25T05:00:10;2.40;;;2.20;;
1062;SDS011;520;50.932;6.962;2023-04-25T05:02:57;4.20;;;2.20;;
1062;SDS011;520;50.932;6.962;2023-04-25T05:05:46;5.90;;;2.30;;
1062;SDS011;520;50.932;6.962;2023-04-25T05:08:26;2.97;;;2.30;;
1062;SDS011;520;50.932;6.962;2023-04-25T05:10:58;4.20;;;2.20;;
1062;SDS011;520;50.932;6.962;2023-04-25T05:13:36;3.53;;;2.13;;
1062;SDS011;520;50.932;6.962;2023-04-25T05:16:20;3.93;;;2.00;;
1062;SDS011;520;50.932;6.962;2023-04-25T05:19:55;3.77;;;2.27;;
1062;SDS011;520;50.932;6.962;2023-04-25T05:22:42;3.07;;;2.03;;
1062;SDS011;520;50.932;6.962;2023-04-25T05:25:11;2.90;;;1.83;;
1062;SDS011;520;50.932;6.962;2023-04-25T05:27:58;3.00;;;1.87;;
1062;SDS011;520;50.932;6.962;2023-04-25T05:30:45;3.97;;;2.17;;
1062;SDS011;520;50.932;6.962;2023-04-25T05:33:14;3.30;;;1.90;;
1062;SDS011;520;50.932;6.962;2023-04-25T05:36:10;3.43;;;2.13;;
1062;SDS011;520;50.932;6.962;2023-04-25T05:38:52;3.47;;;2.50;;
1062;SDS011;520;50.932;6.962;2023-04-25T05:41:43;2.30;;;1.80;;
1062;SDS011;520;50.932;6.962;2023-04-25T05:44:25;3.30;;;2.87;;
1062;SDS011;520;50.932;6.962;2023-04-25T05:47:15;2.77;;;1.97;;
1062;SDS011;520;50.932;6.962;2023-04-25T05:49:58;3.23;;;2.07;;
1062;SDS011;520;50.932;6.962;2023-04-25T05:52:59;3.47;;;2.10;;
1062;SDS011;520;50.932;6.962;2023-04-25T05:55:34;3.93;;;1.87;;
1062;SDS011;520;50.932;6.962;2023-04-25T05:58:50;8.63;;;2.17;;
1062;SDS011;520;50.932;6.962;2023-04-25T06:01:34;3.97;;;2.03;;
1062;SDS011;520;50.932;6.962;2023-04-25T06:04:13;3.43;;;2.17;;
1062;SDS011;520;50.932;6.962;2023-04-25T06:06:58;5.03;;;2.00;;
1062;SDS011;520;50.932;6.962;2023-04-25T06:09:57;4.70;;;2.30;;
1062;SDS011;520;50.932;6.962;2023-04-25T06:12:44;2.93;;;1.40;;
1062;SDS011;520;50.932;6.962;2023-04-25T06:15:52;2.53;;;2.00;;
1062;SDS011;520;50.932;6.962;2023-04-25T06:25:16;5.30;;;2.10;;
1062;SDS011;520;50.932;6.962;2023-04-25T06:27:55;3.17;;;2.23;;
1062;SDS011;520;50.932;6.962;2023-04-25T06:30:44;4.90;;;2.13;;
1062;SDS011;520;50.932;6.962;2023-04-25T06:33:35;3.60;;;2.07;;
1062;SDS011;520;50.932;6.962;2023-04-25T06:36:40;2.60;;;1.70;;
1062;SDS011;520;50.932;6.962;2023-04-25T06:39:33;4.37;;;2.30;;
1062;SDS011;520;50.932;6.962;2023-04-25T06:42:38;6.73;;;2.83;;
1062;SDS011;520;50.932;6.962;2023-04-25T06:45:08;4.33;;;2.53;;
1062;SDS011;520;50.932;6.962;2023-04-25T06:48:12;3.10;;;2.73;;
1062;SDS011;520;50.932;6.962;2023-04-25T06:54:22;2.33;;;2.03;;
1062;SDS011;520;50.932;6.962;2023-04-25T06:57:06;3.07;;;1.87;;
1062;SDS011;520;50.932;6.962;2023-04-25T06:59:58;2.20;;;2.00;;
1062;SDS011;520;50.932;6.962;2023-04-25T07:02:58;5.33;;;1.90;;
1062;SDS011;520;50.932;6.962;2023-04-25T07:06:22;3.97;;;2.50;;
1062;SDS011;520;50.932;6.962;2023-04-25T07:09:02;2.90;;;1.80;;
1062;SDS011;520;50.932;6.962;2023-04-25T07:15:13;4.73;;;2.30;;
1062;SDS011;520;50.932;6.962;2023-04-25T07:21:12;2.57;;;2.03;;
1062;SDS011;520;50.932;6.962;2023-04-25T07:24:01;2.70;;;2.50;;
1062;SDS011;520;50.932;6.962;2023-04-25T07:26:44;3.37;;;2.40;;
1062;SDS011;520;50.932;6.962;2023-04-25T07:29:50;3.33;;;1.97;;
1062;SDS011;520;50.932;6.962;2023-04-25T07:32:54;3.50;;;1.87;;
1062;SDS011;520;50.932;6.962;2023-04-25T07:35:39;3.40;;;2.63;;
1062;SDS011;520;50.932;6.962;2023-04-25T07:38:24;3.30;;;2.23;;
1062;SDS011;520;50.932;6.962;2023-04-25T07:41:11;4.67;;;2.20;;
1062;SDS011;520;50.932;6.962;2023-04-25T07:43:56;4.10;;;2.20;;
1062;SDS011;520;50.932;6.962;2023-04-25T07:46:52;3.37;;;2.10;;
1062;SDS011;520;50.932;6.962;2023-04-25T07:49:49;4.73;;;2.43;;
1062;SDS011;520;50.932;6.962;2023-04-25T07:52:34;3.10;;;2.50;;
1062;SDS011;520;50.932;6.962;2023-04-25T07:55:24;2.50;;;1.80;;
1062;SDS011;520;50.932;6.962;2023-04-25T07:58:20;2.30;;;1.93;;
1062;SDS011;520;50.932;6.962;2023-04-25T08:00:58;3.17;;;2.30;;
1062;SDS011;520;50.932;6.962;2023-04-25T08:03:45;2.63;;;2.33;;
1062;SDS011;520;50.932;6.962;2023-04-25T08:09:30;4.00;;;2.47;;
1062;SDS011;520;50.932;6.962;2023-04-25T08:12:22;3.53;;;2.50;;
1062;SDS011;520;50.932;6.962;2023-04-25T08:15:04;2.10;;;1.90;;
1062;SDS011;520;50.932;6.962;2023-04-25T08:17:44;3.53;;;2.13;;
1062;SDS011;520;50.932;6.962;2023-04-25T08:20:25;3.77;;;1.90;;
1062;SDS011;520;50.932;6.962;2023-04-25T08:23:05;4.07;;;2.00;;
1062;SDS011;520;50.932;6.962;2023-04-25T08:26:02;6.50;;;2.57;;
1062;SDS011;520;50.932;6.962;2023-04-25T08:28:46;3.57;;;2.10;;
1062;SDS011;520;50.932;6.962;2023-04-25T08:31:24;1.73;;;1.63;;
1062;SDS011;520;50.932;6.962;2023-04-25T08:37:31;4.77;;;1.87;;
1062;SDS011;520;50.932;6.962;2023-04-25T08:40:18;5.90;;;1.90;;
1062;SDS011;520;50.932;6.962;2023-04-25T08:43:16;2.60;;;1.53;;
1062;SDS011;520;50.932;6.962;2023-04-25T08:46:28;2.67;;;1.80;;
1062;SDS011;520;50.932;6.962;2023-04-25T08:49:39;2.00;;;1.80;;
1062;SDS011;520;50.932;6.962;2023-04-25T08:55:43;3.00;;;2.00;;
1062;SDS011;520;50.932;6.962;2023-04-25T08:58:39;1.47;;;1.27;;
1062;SDS011;520;50.932;6.962;2023-04-25T09:01:30;4.40;;;1.40;;
1062;SDS011;520;50.932;6.962;2023-04-25T09:04:07;1.60;;;1.50;;
1062;SDS011;520;50.932;6.962;2023-04-25T09:07:12;2.23;;;1.70;;
1062;SDS011;520;50.932;6.962;2023-04-25T09:10:22;2.37;;;1.40;;
1062;SDS011;520;50.932;6.962;2023-04-25T09:13:13;1.87;;;1.30;;
1062;SDS011;520;50.932;6.962;2023-04-25T09:16:00;3.30;;;1.57;;
1062;SDS011;520;50.932;6.962;2023-04-25T09:18:53;2.40;;;1.40;;
1062;SDS011;520;50.932;6.962;2023-04-25T09:22:07;2.30;;;1.73;;
1062;SDS011;520;50.932;6.962;2023-04-25T09:24:44;2.80;;;1.70;;
1062;SDS011;520;50.932;6.962;2023-04-25T09:27:25;1.43;;;1.27;;
1062;SDS011;520;50.932;6.962;2023-04-25T09:30:14;2.03;;;1.10;;
1062;SDS011;520;50.932;6.962;2023-04-25T09:32:56;1.37;;;0.97;;
1062;SDS011;520;50.932;6.962;2023-04-25T09:35:27;1.60;;;1.03;;
1062;SDS011;520;50.932;6.962;2023-04-25T09:38:25;3.60;;;1.90;;
1062;SDS011;520;50.932;6.962;2023-04-25T09:41:08;5.50;;;3.73;;
1062;SDS011;520;50.932;6.962;2023-04-25T09:43:46;3.93;;;2.17;;
1062;SDS011;520;50.932;6.962;2023-04-25T09:46:41;3.70;;;3.17;;
1062;SDS011;520;50.932;6.962;2023-04-25T09:49:38;1.77;;;1.10;;
1062;SDS011;520;50.932;6.962;2023-04-25T09:52:17;2.40;;;1.30;;
1062;SDS011;520;50.932;6.962;2023-04-25T09:54:50;3.33;;;1.70;;
1062;SDS011;520;50.932;6.962;2023-04-25T09:57:34;2.20;;;1.00;;
1062;SDS011;520;50.932;6.962;2023-04-25T10:00:08;1.20;;;1.10;;
1062;SDS011;520;50.932;6.962;2023-04-25T10:02:46;3.43;;;1.40;;
1062;SDS011;520;50.932;6.962;2023-04-25T10:05:28;3.97;;;2.90;;
1062;SDS011;520;50.932;6.962;2023-04-25T10:08:34;1.43;;;1.10;;
1062;SDS011;520;50.932;6.962;2023-04-25T10:11:41;1.87;;;1.03;;
1062;SDS011;520;50.932;6.962;2023-04-25T10:14:22;2.03;;;1.80;;
1062;SDS011;520;50.932;6.962;2023-04-25T10:16:57;2.17;;;1.23;;
1062;SDS011;520;50.932;6.962;2023-04-25T10:19:39;2.00;;;1.70;;
1062;SDS011;520;50.932;6.962;2023-04-25T10:22:23;0.97;;;0.97;;
1062;SDS011;520;50.932;6.962;2023-04-25T10:25:24;1.50;;;1.40;;
1062;SDS011;520;50.932;6.962;2023-04-25T10:27:55;3.07;;;1.10;;
1062;SDS011;520;50.932;6.962;2023-04-25T10:30:39;3.67;;;1.60;;
1062;SDS011;520;50.932;6.962;2023-04-25T10:33:32;1.23;;;1.00;;
1062;SDS011;520;50.932;6.962;2023-04-25T10:36:11;2.20;;;2.10;;
1062;SDS011;520;50.932;6.962;2023-04-25T10:39:08;1.47;;;1.37;;
1062;SDS011;520;50.932;6.962;2023-04-25T10:41:57;1.40;;;1.13;;
1062;SDS011;520;50.932;6.962;2023-04-25T10:44:38;1.00;;;0.90;;
1062;SDS011;520;50.932;6.962;2023-04-25T10:47:57;2.50;;;1.30;;
1062;SDS011;520;50.932;6.962;2023-04-25T10:50:46;1.10;;;1.00;;
1062;SDS011;520;50.932;6.962;2023-04-25T10:53:20;1.97;;;1.20;;
1062;SDS011;520;50.932;6.962;2023-04-25T10:56:00;2.20;;;1.27;;
1062;SDS011;520;50.932;6.962;2023-04-25T10:58:43;1.73;;;1.40;;
1062;SDS011;520;50.932;6.962;2023-04-25T11:04:29;2.40;;;1.50;;
1062;SDS011;520;50.932;6.962;2023-04-25T11:07:26;3.73;;;1.47;;
1062;SDS011;520;50.932;6.962;2023-04-25T11:10:20;4.60;;;1.40;;
1062;SDS011;520;50.932;6.962;2023-04-25T11:13:05;2.00;;;1.20;;
1062;SDS011;520;50.932;6.962;2023-04-25T11:15:35;1.50;;;0.90;;
1062;SDS011;520;50.932;6.962;2023-04-25T11:18:36;0.80;;;0.80;;
1062;SDS011;520;50.932;6.962;2023-04-25T11:21:11;1.40;;;1.00;;
1062;SDS011;520;50.932;6.962;2023-04-25T11:23:51;2.70;;;0.97;;
1062;SDS011;520;50.932;6.962;2023-04-25T11:26:57;0.83;;;0.83;;
1062;SDS011;520;50.932;6.962;2023-04-25T11:29:33;1.23;;;0.90;;
1062;SDS011;520;50.932;6.962;2023-04-25T11:35:29;1.10;;;1.10;;
1062;SDS011;520;50.932;6.962;2023-04-25T11:38:16;1.17;;;0.93;;
1062;SDS011;520;50.932;6.962;2023-04-25T11:40:53;1.47;;;0.90;;
1062;SDS011;520;50.932;6.962;2023-04-25T11:43:26;1.03;;;1.00;;
1062;SDS011;520;50.932;6.962;2023-04-25T11:46:13;3.17;;;1.70;;
1062;SDS011;520;50.932;6.962;2023-04-25T11:48:49;1.33;;;1.03;;
1062;SDS011;520;50.932;6.962;2023-04-25T11:51:41;3.93;;;1.60;;
1062;SDS011;520;50.932;6.962;2023-04-25T11:54:21;2.60;;;1.20;;
1062;SDS011;520;50.932;6.962;2023-04-25T11:56:54;1.37;;;1.23;;
1062;SDS011;520;50.932;6.962;2023-04-25T11:59:31;1.33;;;1.07;;
1062;SDS011;520;50.932;6.962;2023-04-25T12:02:09;0.80;;;0.80;;
1062;SDS011;520;50.932;6.962;2023-04-25T12:05:19;1.63;;;1.07;;
1062;SDS011;520;50.932;6.962;2023-04-25T12:08:11;2.20;;;1.03;;
1062;SDS011;520;50.932;6.962;2023-04-25T12:10:49;1.70;;;0.80;;
1062;SDS011;520;50.932;6.962;2023-04-25T12:13:27;1.47;;;0.90;;
1062;SDS011;520;50.932;6.962;2023-04-25T12:16:26;1.27;;;0.83;;
1062;SDS011;520;50.932;6.962;2023-04-25T12:19:08;1.57;;;0.60;;
1062;SDS011;520;50.932;6.962;2023-04-25T12:22:02;1.33;;;0.90;;
1062;SDS011;520;50.932;6.962;2023-04-25T12:25:08;0.73;;;0.70;;
1062;SDS011;520;50.932;6.962;2023-04-25T12:28:26;1.13;;;0.70;;
1062;SDS011;520;50.932;6.962;2023-04-25T12:31:11;1.50;;;1.00;;
1062;SDS011;520;50.932;6.962;2023-04-25T12:34:12;1.10;;;1.10;;
1062;SDS011;520;50.932;6.962;2023-04-25T12:37:07;1.90;;;1.20;;
1062;SDS011;520;50.932;6.962;2023-04-25T12:39:55;1.00;;;0.90;;
1062;SDS011;520;50.932;6.962;2023-04-25T12:42:45;1.00;;;0.90;;
1062;SDS011;520;50.932;6.962;2023-04-25T12:45:27;1.10;;;1.03;;
1062;SDS011;520;50.932;6.962;2023-04-25T12:47:56;1.10;;;1.00;;
1062;SDS011;520;50.932;6.962;2023-04-25T12:50:32;1.57;;;1.00;;
1062;SDS011;520;50.932;6.962;2023-04-25T12:53:20;2.97;;;1.00;;
1062;SDS011;520;50.932;6.962;2023-04-25T12:56:10;0.93;;;0.93;;
1062;SDS011;520;50.932;6.962;2023-04-25T12:58:40;1.83;;;0.90;;
1062;SDS011;520;50.932;6.962;2023-04-25T13:01:16;1.50;;;1.03;;
1062;SDS011;520;50.932;6.962;2023-04-25T13:03:52;2.30;;;1.40;;
1062;SDS011;520;50.932;6.962;2023-04-25T13:06:22;1.10;;;1.00;;
1062;SDS011;520;50.932;6.962;2023-04-25T13:09:08;2.23;;;0.90;;
1062;SDS011;520;50.932;6.962;2023-04-25T13:12:11;2.30;;;1.00;;
1062;SDS011;520;50.932;6.962;2023-04-25T13:14:44;0.90;;;0.73;;
1062;SDS011;520;50.932;6.962;2023-04-25T13:17:28;1.03;;;0.93;;
1062;SDS011;520;50.932;6.962;2023-04-25T13:20:15;2.03;;;1.40;;
1062;SDS011;520;50.932;6.962;2023-04-25T13:23:09;1.13;;;1.03;;
1062;SDS011;520;50.932;6.962;2023-04-25T13:25:47;0.90;;;0.90;;
1062;SDS011;520;50.932;6.962;2023-04-25T13:28:23;1.10;;;1.00;;
1062;SDS011;520;50.932;6.962;2023-04-25T13:31:15;1.97;;;1.13;;
1062;SDS011;520;50.932;6.962;2023-04-25T13:34:01;1.10;;;0.90;;
1062;SDS011;520;50.932;6.962;2023-04-25T13:36:58;1.00;;;0.70;;
1062;SDS011;520;50.932;6.962;2023-04-25T13:40:11;2.07;;;1.20;;
1062;SDS011;520;50.932;6.962;2023-04-25T13:43:01;0.60;;;0.60;;
1062;SDS011;520;50.932;6.962;2023-04-25T13:45:36;1.40;;;0.77;;
1062;SDS011;520;50.932;6.962;2023-04-25T13:48:07;2.00;;;0.90;;
1062;SDS011;520;50.932;6.962;2023-04-25T13:50:57;1.67;;;1.10;;
1062;SDS011;520;50.932;6.962;2023-04-25T13:53:29;1.20;;;0.90;;
1062;SDS011;520;50.932;6.962;2023-04-25T13:56:40;1.27;;;0.90;;
1062;SDS011;520;50.932;6.962;2023-04-25T13:59:22;0.90;;;0.80;;
1062;SDS011;520;50.932;6.962;2023-04-25T14:02:19;1.17;;;0.90;;
1062;SDS011;520;50.932;6.962;2023-04-25T14:05:15;1.53;;;1.00;;
1062;SDS011;520;50.932;6.962;2023-04-25T14:08:07;1.40;;;0.93;;
1062;SDS011;520;50.932;6.962;2023-04-25T14:11:04;3.00;;;0.90;;
1062;SDS011;520;50.932;6.962;2023-04-25T14:13:36;0.70;;;0.70;;
1062;SDS011;520;50.932;6.962;2023-04-25T14:16:23;1.03;;;0.80;;
1062;SDS011;520;50.932;6.962;2023-04-25T14:19:23;0.80;;;0.70;;
1062;SDS011;520;50.932;6.962;2023-04-25T14:22:01;1.77;;;0.73;;
1062;SDS011;520;50.932;6.962;2023-04-25T14:24:43;0.80;;;0.70;;
1062;SDS011;520;50.932;6.962;2023-04-25T14:27:21;1.10;;;0.93;;
1062;SDS011;520;50.932;6.962;2023-04-25T14:32:56;1.27;;;1.17;;
1062;SDS011;520;50.932;6.962;2023-04-25T14:35:39;1.27;;;1.10;;
1062;SDS011;520;50.932;6.962;2023-04-25T14:38:16;1.60;;;0.70;;
1062;SDS011;520;50.932;6.962;2023-04-25T14:41:10;0.93;;;0.90;;
1062;SDS011;520;50.932;6.962;2023-04-25T14:46:41;0.73;;;0.60;;
1062;SDS011;520;50.932;6.962;2023-04-25T14:49:31;0.70;;;0.60;;
1062;SDS011;520;50.932;6.962;2023-04-25T14:52:17;3.13;;;0.73;;
1062;SDS011;520;50.932;6.962;2023-04-25T14:54:55;0.60;;;0.60;;
1062;SDS011;520;50.932;6.962;2023-04-25T14:57:46;1.50;;;0.87;;
1062;SDS011;520;50.932;6.962;2023-04-25T15:00:22;2.77;;;1.10;;
1062;SDS011;520;50.932;6.962;2023-04-25T15:02:55;0.80;;;0.80;;
1062;SDS011;520;50.932;6.962;2023-04-25T15:05:37;1.93;;;1.00;;
1062;SDS011;520;50.932;6.962;2023-04-25T15:08:32;1.40;;;0.83;;
1062;SDS011;520;50.932;6.962;2023-04-25T15:11:06;0.57;;;0.57;;
1062;SDS011;520;50.932;6.962;2023-04-25T15:14:04;1.50;;;1.00;;
1062;SDS011;520;50.932;6.962;2023-04-25T15:16:55;0.60;;;0.60;;
1062;SDS011;520;50.932;6.962;2023-04-25T15:19:24;0.60;;;0.60;;
1062;SDS011;520;50.932;6.962;2023-04-25T15:22:00;1.00;;;0.63;;
1062;SDS011;520;50.932;6.962;2023-04-25T15:25:01;0.77;;;0.70;;
1062;SDS011;520;50.932;6.962;2023-04-25T15:27:36;0.60;;;0.60;;
1062;SDS011;520;50.932;6.962;2023-04-25T15:34:01;0.97;;;0.50;;
1062;SDS011;520;50.932;6.962;2023-04-25T15:36:48;0.50;;;0.50;;
1062;SDS011;520;50.932;6.962;2023-04-25T15:39:31;1.80;;;0.60;;
1062;SDS011;520;50.932;6.962;2023-04-25T15:42:14;3.33;;;0.70;;
1062;SDS011;520;50.932;6.962;2023-04-25T15:45:16;0.90;;;0.90;;
1062;SDS011;520;50.932;6.962;2023-04-25T15:47:54;0.80;;;0.70;;
1062;SDS011;520;50.932;6.962;2023-04-25T15:50:42;1.20;;;0.90;;
1062;SDS011;520;50.932;6.962;2023-04-25T15:53:22;0.83;;;0.80;;
1062;SDS011;520;50.932;6.962;2023-04-25T15:56:06;4.07;;;1.10;;
1062;SDS011;520;50.932;6.962;2023-04-25T15:58:51;2.43;;;0.90;;
1062;SDS011;520;50.932;6.962;2023-04-25T16:01:34;3.17;;;1.17;;
1062;SDS011;520;50.932;6.962;2023-04-25T16:04:38;0.80;;;0.73;;
1062;SDS011;520;50.932;6.962;2023-04-25T16:07:37;1.30;;;0.70;;
1062;SDS011;520;50.932;6.962;2023-04-25T16:10:12;1.43;;;1.33;;
1062;SDS011;520;50.932;6.962;2023-04-25T16:12:59;1.80;;;0.90;;
1062;SDS011;520;50.932;6.962;2023-04-25T16:15:38;1.00;;;1.00;;
1062;SDS011;520;50.932;6.962;2023-04-25T16:18:35;1.50;;;0.77;;
1062;SDS011;520;50.932;6.962;2023-04-25T16:21:13;1.20;;;1.10;;
1062;SDS011;520;50.932;6.962;2023-04-25T16:23:56;2.23;;;0.97;;
1062;SDS011;520;50.932;6.962;2023-04-25T16:26:35;1.47;;;1.00;;
1062;SDS011;520;50.932;6.962;2023-04-25T16:29:25;1.50;;;0.97;;
1062;SDS011;520;50.932;6.962;2023-04-25T16:31:55;1.03;;;0.90;;
1062;SDS011;520;50.932;6.962;2023-04-25T16:34:35;1.53;;;1.43;;
1062;SDS011;520;50.932;6.962;2023-04-25T16:37:16;1.33;;;0.93;;
1062;SDS011;520;50.932;6.962;2023-04-25T16:39:46;1.63;;;1.00;;
1062;SDS011;520;50.932;6.962;2023-04-25T16:42:16;1.40;;;1.30;;
1062;SDS011;520;50.932;6.962;2023-04-25T16:48:27;0.70;;;0.70;;
1062;SDS011;520;50.932;6.962;2023-04-25T16:51:05;1.00;;;0.90;;
1062;SDS011;520;50.932;6.962;2023-04-25T16:53:34;1.13;;;1.07;;
1062;SDS011;520;50.932;6.962;2023-04-25T16:56:30;2.60;;;1.07;;
1062;SDS011;520;50.932;6.962;2023-04-25T16:59:06;2.50;;;1.00;;
1062;SDS011;520;50.932;6.962;2023-04-25T17:01:38;1.30;;;1.00;;
1062;SDS011;520;50.932;6.962;2023-04-25T17:04:16;1.07;;;0.97;;
1062;SDS011;520;50.932;6.962;2023-04-25T17:06:51;0.80;;;0.80;;
1062;SDS011;520;50.932;6.962;2023-04-25T17:09:59;0.70;;;0.70;;
1062;SDS011;520;50.932;6.962;2023-04-25T17:12:32;1.70;;;0.77;;
1062;SDS011;520;50.932;6.962;2023-04-25T17:15:24;0.60;;;0.60;;
1062;SDS011;520;50.932;6.962;2023-04-25T17:18:05;0.90;;;0.90;;
1062;SDS011;520;50.932;6.962;2023-04-25T17:20:37;1.40;;;1.13;;
1062;SDS011;520;50.932;6.962;2023-04-25T17:29:30;0.97;;;0.87;;
1062;SDS011;520;50.932;6.962;2023-04-25T17:32:08;1.37;;;0.60;;
1062;SDS011;520;50.932;6.962;2023-04-25T17:35:12;1.27;;;0.77;;
1062;SDS011;520;50.932;6.962;2023-04-25T17:38:30;1.00;;;1.00;;
1062;SDS011;520;50.932;6.962;2023-04-25T17:41:14;1.57;;;0.90;;
1062;SDS011;520;50.932;6.962;2023-04-25T17:43:55;1.23;;;1.00;;
1062;SDS011;520;50.932;6.962;2023-04-25T17:46:42;1.37;;;1.27;;
1062;SDS011;520;50.932;6.962;2023-04-25T17:49:19;2.83;;;1.80;;
1062;SDS011;520;50.932;6.962;2023-04-25T17:52:04;2.87;;;1.30;;
1062;SDS011;520;50.932;6.962;2023-04-25T17:54:45;0.80;;;0.80;;
1062;SDS011;520;50.932;6.962;2023-04-25T17:57:20;0.90;;;0.90;;
1062;SDS011;520;50.932;6.962;2023-04-25T18:00:22;1.20;;;0.97;;
1062;SDS011;520;50.932;6.962;2023-04-25T18:03:13;1.90;;;0.90;;
1062;SDS011;520;50.932;6.962;2023-04-25T18:06:36;1.70;;;1.57;;
1062;SDS011;520;50.932;6.962;2023-04-25T18:09:10;1.50;;;1.03;;
1062;SDS011;520;50.932;6.962;2023-04-25T18:12:13;1.63;;;0.80;;
1062;SDS011;520;50.932;6.962;2023-04-25T18:15:12;1.60;;;0.80;;
1062;SDS011;520;50.932;6.962;2023-04-25T18:18:00;1.60;;;1.00;;
1062;SDS011;520;50.932;6.962;2023-04-25T18:20:42;1.63;;;1.03;;